createdAt,value
2023-10-29T00:01:02.346Z,9.15
2023-10-29T00:02:05.193Z,5.10
2023-10-29T00:03:08.877Z,5.75
2023-10-29T00:04:11.363Z,6.47
2023-10-29T00:05:14.980Z,7.00
2023-10-29T00:06:17.381Z,7.55
2023-10-29T00:07:20.883Z,6.53
2023-10-29T00:08:23.379Z,7.88
2023-10-29T00:09:26.967Z,5.97
2023-10-29T00:10:29.488Z,5.53
2023-10-29T00:11:32.919Z,5.15
2023-10-29T00:12:35.582Z,7.97
2023-10-29T00:13:40.516Z,8.68
2023-10-29T00:14:42.950Z,7.80
2023-10-29T00:15:46.513Z,4.03
2023-10-29T00:16:48.909Z,7.30
2023-10-29T00:17:52.694Z,8.00
2023-10-29T00:18:55.358Z,9.48
2023-10-29T00:19:57.987Z,7.00
2023-10-29T00:21:01.857Z,7.00
2023-10-29T00:22:05.588Z,6.82
2023-10-29T00:23:09.128Z,4.60
2023-10-29T00:24:11.725Z,6.93
2023-10-29T00:25:15.794Z,8.68
2023-10-29T00:26:18.606Z,8.07
2023-10-29T00:27:22.064Z,7.40
2023-10-29T00:28:24.748Z,6.43
2023-10-29T00:29:29.720Z,5.18
2023-10-29T00:30:32.246Z,12.27
2023-10-29T00:31:35.913Z,9.80
2023-10-29T00:32:38.629Z,6.35
2023-10-29T00:33:42.227Z,4.55
2023-10-29T00:34:44.800Z,7.97
2023-10-29T00:35:48.362Z,5.43
2023-10-29T00:36:50.893Z,6.82
2023-10-29T00:37:54.480Z,9.05
2023-10-29T00:38:57.437Z,7.07
2023-10-29T00:40:00.947Z,6.40
2023-10-29T00:41:03.701Z,6.80
2023-10-29T00:42:08.359Z,7.95
2023-10-29T00:43:14.429Z,7.78
2023-10-29T00:44:18.079Z,10.15
2023-10-29T00:45:21.891Z,6.70
2023-10-29T00:46:26.889Z,9.85
2023-10-29T00:47:29.540Z,5.60
2023-10-29T00:48:33.488Z,7.93
2023-10-29T00:49:37.582Z,8.07
2023-10-29T00:50:41.765Z,6.35
2023-10-29T00:51:45.330Z,8.93
2023-10-29T00:52:49.344Z,8.15
2023-10-29T00:53:52.822Z,7.93
2023-10-29T00:54:56.779Z,8.30
2023-10-29T00:56:00.706Z,7.78
2023-10-29T00:57:05.072Z,7.70
2023-10-29T00:58:07.722Z,8.15
2023-10-29T00:59:13.698Z,8.02
2023-10-29T01:00:19.403Z,6.83
2023-10-29T01:01:25.586Z,6.20
2023-10-29T01:02:28.399Z,5.78
2023-10-29T01:03:32.112Z,8.50
2023-10-29T01:04:37.072Z,9.25
2023-10-29T01:05:41.174Z,7.32
2023-10-29T01:06:45.720Z,4.65
2023-10-29T01:07:49.254Z,10.65
2023-10-29T01:08:51.927Z,6.15
2023-10-29T01:09:55.572Z,7.10
2023-10-29T01:10:58.056Z,9.40
2023-10-29T01:12:01.653Z,7.10
2023-10-29T01:13:04.309Z,8.80
2023-10-29T01:14:07.850Z,4.55
2023-10-29T01:15:11.336Z,8.40
2023-10-29T01:16:14.828Z,7.88
2023-10-29T01:17:19.618Z,6.15
2023-10-29T01:18:23.476Z,7.30
2023-10-29T01:19:26.048Z,7.85
2023-10-29T01:20:29.799Z,7.28
2023-10-29T01:21:32.711Z,5.87
2023-10-29T01:22:36.682Z,4.25
2023-10-29T01:23:39.978Z,5.60
2023-10-29T01:24:43.748Z,4.60
2023-10-29T01:25:46.150Z,12.07
2023-10-29T01:26:49.702Z,4.93
2023-10-29T01:27:52.897Z,6.60
2023-10-29T01:28:56.460Z,8.30
2023-10-29T01:29:58.969Z,6.03
2023-10-29T01:31:02.572Z,7.68
2023-10-29T01:32:05.647Z,7.07
2023-10-29T01:33:10.653Z,9.40
2023-10-29T01:34:13.196Z,5.03
2023-10-29T01:35:17.099Z,5.13
2023-10-29T01:36:19.864Z,5.35
2023-10-29T01:37:23.309Z,5.13
2023-10-29T01:38:26.627Z,4.57
2023-10-29T01:39:30.171Z,5.85
2023-10-29T01:40:32.675Z,6.03
2023-10-29T01:41:36.346Z,6.57
2023-10-29T01:42:38.962Z,7.30
2023-10-29T01:43:42.461Z,3.97
2023-10-29T01:44:45.054Z,3.85
2023-10-29T01:45:48.518Z,5.03
2023-10-29T01:46:50.991Z,8.70
2023-10-29T01:47:54.627Z,5.43
2023-10-29T01:48:58.670Z,3.50
2023-10-29T01:50:01.016Z,3.05
2023-10-29T01:51:07.717Z,2.20
2023-10-29T01:52:10.068Z,2.50
2023-10-29T01:53:13.656Z,2.87
2023-10-29T01:54:16.206Z,3.03
2023-10-29T01:55:19.999Z,3.13
2023-10-29T01:56:22.528Z,3.55
2023-10-29T01:57:25.913Z,2.78
2023-10-29T01:58:28.943Z,5.65
2023-10-29T01:59:32.280Z,2.63
2023-10-29T02:00:35.904Z,9.13
2023-10-29T02:01:38.366Z,10.50
2023-10-29T02:02:41.897Z,10.10
2023-10-29T02:03:44.686Z,8.90
2023-10-29T02:04:49.615Z,8.90
2023-10-29T02:05:52.306Z,5.32
2023-10-29T02:06:55.962Z,7.88
2023-10-29T02:07:58.383Z,5.95
2023-10-29T02:09:04.357Z,11.35
2023-10-29T02:10:07.641Z,12.75
2023-10-29T02:11:11.043Z,8.73
2023-10-29T02:12:13.383Z,5.53
2023-10-29T02:13:18.064Z,9.23
2023-10-29T02:14:20.718Z,6.53
2023-10-29T02:15:24.121Z,10.32
2023-10-29T02:16:26.520Z,9.05
2023-10-29T02:17:30.120Z,5.07
2023-10-29T02:18:32.593Z,7.13
2023-10-29T02:19:36.194Z,6.70
2023-10-29T02:20:40.282Z,8.57
2023-10-29T02:21:44.256Z,5.68
2023-10-29T02:22:48.118Z,4.95
2023-10-29T02:23:51.668Z,3.00
2023-10-29T02:24:54.095Z,5.80
2023-10-29T02:25:57.451Z,5.72
2023-10-29T02:26:59.854Z,5.47
2023-10-29T02:28:03.200Z,3.05
2023-10-29T02:29:06.039Z,5.43
2023-10-29T02:30:11.962Z,5.55
2023-10-29T02:31:18.289Z,4.55
2023-10-29T02:32:21.801Z,4.50
2023-10-29T02:33:24.360Z,5.97
2023-10-29T02:34:28.009Z,3.75
2023-10-29T02:35:30.556Z,3.80
2023-10-29T02:36:33.966Z,4.82
2023-10-29T02:37:37.302Z,4.88
2023-10-29T02:38:44.336Z,6.28
2023-10-29T02:39:47.188Z,5.35
2023-10-29T02:40:50.577Z,4.45
2023-10-29T02:41:53.329Z,6.30
2023-10-29T02:42:56.829Z,5.93
2023-10-29T02:43:59.899Z,4.82
2023-10-29T02:45:03.360Z,5.22
2023-10-29T02:46:05.982Z,3.30
2023-10-29T02:47:08.332Z,3.97
2023-10-29T02:48:12.164Z,3.10
2023-10-29T02:49:15.976Z,5.10
2023-10-29T02:50:19.409Z,4.82
2023-10-29T02:51:21.786Z,3.40
2023-10-29T02:52:26.155Z,3.45
2023-10-29T02:53:29.658Z,5.57
2023-10-29T02:54:34.985Z,3.55
2023-10-29T02:55:38.388Z,2.47
2023-10-29T02:56:41.967Z,1.37
2023-10-29T02:57:44.578Z,3.67
2023-10-29T02:58:48.133Z,4.18
2023-10-29T02:59:51.370Z,5.40
2023-10-29T03:00:55.226Z,4.70
2023-10-29T03:01:57.836Z,1.83
2023-10-29T03:03:01.662Z,2.70
2023-10-29T03:04:06.293Z,1.98
2023-10-29T03:05:13.201Z,3.08
2023-10-29T03:06:15.877Z,1.42
2023-10-29T03:07:19.872Z,1.60
2023-10-29T03:08:22.340Z,2.92
2023-10-29T03:09:25.801Z,1.98
2023-10-29T03:10:32.730Z,2.17
2023-10-29T03:11:36.227Z,2.60
2023-10-29T03:12:38.737Z,4.35
2023-10-29T03:13:42.482Z,3.78
2023-10-29T03:14:45.126Z,2.83
2023-10-29T03:15:49.109Z,4.90
2023-10-29T03:16:52.327Z,4.50
2023-10-29T03:17:57.777Z,5.50
2023-10-29T03:19:00.877Z,7.05
2023-10-29T03:20:04.708Z,3.63
2023-10-29T03:21:07.338Z,4.90
2023-10-29T03:22:10.744Z,4.97
2023-10-29T03:23:13.181Z,2.35
2023-10-29T03:24:17.081Z,3.50
2023-10-29T03:25:19.653Z,5.30
2023-10-29T03:26:23.620Z,3.47
2023-10-29T03:27:27.831Z,2.53
2023-10-29T03:28:30.993Z,2.30
2023-10-29T03:29:34.843Z,1.90
2023-10-29T03:30:37.831Z,4.20
2023-10-29T03:31:41.295Z,2.80
2023-10-29T03:32:43.706Z,2.42
2023-10-29T03:33:48.676Z,3.22
2023-10-29T03:34:51.149Z,3.95
2023-10-29T03:35:54.755Z,2.92
2023-10-29T03:36:57.390Z,2.30
2023-10-29T03:38:01.922Z,4.68
2023-10-29T03:39:04.506Z,4.20
2023-10-29T03:40:09.875Z,1.83
2023-10-29T03:41:20.667Z,2.17
2023-10-29T03:42:25.709Z,1.65
2023-10-29T03:43:28.166Z,7.10
2023-10-29T03:44:31.739Z,2.22
2023-10-29T03:45:34.210Z,2.75
2023-10-29T03:46:37.807Z,3.03
2023-10-29T03:47:42.074Z,4.18
2023-10-29T03:48:47.286Z,2.00
2023-10-29T03:49:49.610Z,2.27
2023-10-29T03:50:53.088Z,4.10
2023-10-29T03:51:55.618Z,3.35
2023-10-29T03:52:59.098Z,3.00
2023-10-29T03:54:01.788Z,3.33
2023-10-29T03:55:04.619Z,3.30
2023-10-29T03:56:09.427Z,2.03
2023-10-29T03:57:11.959Z,2.60
2023-10-29T03:58:16.811Z,2.88
2023-10-29T03:59:19.283Z,5.18
2023-10-29T04:00:23.063Z,3.97
2023-10-29T04:01:25.649Z,3.28
2023-10-29T04:02:28.239Z,2.50
2023-10-29T04:03:32.354Z,4.25
2023-10-29T04:04:35.055Z,1.88
2023-10-29T04:05:40.697Z,3.15
2023-10-29T04:06:43.722Z,2.75
2023-10-29T04:07:46.282Z,2.83
2023-10-29T04:08:49.897Z,3.90
2023-10-29T04:09:52.468Z,3.80
2023-10-29T04:10:56.351Z,2.20
2023-10-29T04:12:00.537Z,3.03
2023-10-29T04:13:04.210Z,5.97
2023-10-29T04:14:08.251Z,2.72
2023-10-29T04:15:13.250Z,3.72
2023-10-29T04:16:16.306Z,3.05
2023-10-29T04:17:20.031Z,2.47
2023-10-29T04:18:26.118Z,5.95
2023-10-29T04:19:29.729Z,1.63
2023-10-29T04:20:32.625Z,3.38
2023-10-29T04:21:36.263Z,2.13
2023-10-29T04:22:38.803Z,2.22
2023-10-29T04:23:42.361Z,5.53
2023-10-29T04:24:44.908Z,1.92
2023-10-29T04:25:47.344Z,3.80
2023-10-29T04:26:51.038Z,3.47
2023-10-29T04:27:53.632Z,4.28
2023-10-29T04:28:57.062Z,4.95
2023-10-29T04:30:01.081Z,2.47
2023-10-29T04:31:05.077Z,2.65
2023-10-29T04:32:08.222Z,4.30
2023-10-29T04:33:11.859Z,3.05
2023-10-29T04:34:14.800Z,3.58
2023-10-29T04:35:18.511Z,2.72
2023-10-29T04:36:22.671Z,4.60
2023-10-29T04:37:25.179Z,3.30
2023-10-29T04:38:29.835Z,2.22
2023-10-29T04:39:32.292Z,4.53
2023-10-29T04:40:36.311Z,4.35
2023-10-29T04:41:39.085Z,4.60
2023-10-29T04:42:42.552Z,2.90
2023-10-29T04:43:45.054Z,3.10
2023-10-29T04:44:49.254Z,5.10
2023-10-29T04:45:53.513Z,3.60
2023-10-29T04:46:56.902Z,2.13
2023-10-29T04:47:59.558Z,5.22
2023-10-29T04:49:03.594Z,2.35
2023-10-29T04:50:06.870Z,5.90
2023-10-29T04:51:11.016Z,3.05
2023-10-29T04:52:13.588Z,2.80
2023-10-29T04:53:17.077Z,2.23
2023-10-29T04:54:19.547Z,2.63
2023-10-29T04:55:23.192Z,5.00
2023-10-29T04:56:25.860Z,4.70
2023-10-29T04:57:28.307Z,5.95
2023-10-29T04:58:33.186Z,3.35
2023-10-29T04:59:38.309Z,2.58
2023-10-29T05:00:42.370Z,6.07
2023-10-29T05:01:46.730Z,4.45
2023-10-29T05:02:50.414Z,2.58
2023-10-29T05:03:53.051Z,5.70
2023-10-29T05:04:56.483Z,2.10
2023-10-29T05:05:58.952Z,1.95
2023-10-29T05:07:02.555Z,3.22
2023-10-29T05:08:05.431Z,2.67
2023-10-29T05:09:09.052Z,6.60
2023-10-29T05:10:11.807Z,5.47
2023-10-29T05:11:15.577Z,1.48
2023-10-29T05:12:17.960Z,2.70
2023-10-29T05:13:21.430Z,2.28
2023-10-29T05:14:24.610Z,2.40
2023-10-29T05:15:27.728Z,1.65
2023-10-29T05:16:31.749Z,3.78
2023-10-29T05:17:36.531Z,1.80
2023-10-29T05:18:40.284Z,3.33
2023-10-29T05:19:43.583Z,3.33
2023-10-29T05:20:47.045Z,1.63
2023-10-29T05:21:50.472Z,2.53
2023-10-29T05:22:54.210Z,1.75
2023-10-29T05:23:57.711Z,4.53
2023-10-29T05:25:00.190Z,2.20
2023-10-29T05:26:03.781Z,2.08
2023-10-29T05:27:06.326Z,2.10
2023-10-29T05:28:10.057Z,2.35
2023-10-29T05:29:12.598Z,3.55
2023-10-29T05:30:15.014Z,3.42
2023-10-29T05:31:18.507Z,3.53
2023-10-29T05:32:21.277Z,2.35
2023-10-29T05:33:26.230Z,4.18
2023-10-29T05:34:28.696Z,3.05
2023-10-29T05:35:32.142Z,2.53
2023-10-29T05:36:36.484Z,5.78
2023-10-29T05:37:40.405Z,4.80
2023-10-29T05:38:42.971Z,3.58
2023-10-29T05:39:46.472Z,1.83
2023-10-29T05:40:49.173Z,4.03
2023-10-29T05:41:52.639Z,5.43
2023-10-29T05:42:55.218Z,3.22
2023-10-29T05:43:58.909Z,3.25
2023-10-29T05:45:01.478Z,2.47
2023-10-29T05:46:05.373Z,3.10
2023-10-29T05:47:07.851Z,3.58
2023-10-29T05:48:11.263Z,4.50
2023-10-29T05:49:15.188Z,3.67
2023-10-29T05:50:18.603Z,6.18
2023-10-29T05:51:21.245Z,4.32
2023-10-29T05:52:24.641Z,3.88
2023-10-29T05:53:26.935Z,2.67
2023-10-29T05:54:30.877Z,5.00
2023-10-29T05:55:34.420Z,3.80
2023-10-29T05:56:38.061Z,3.87
2023-10-29T05:57:40.535Z,3.22
2023-10-29T05:58:44.855Z,4.25
2023-10-29T05:59:47.321Z,10.25
2023-10-29T06:00:50.546Z,3.70
2023-10-29T06:01:53.877Z,4.35
2023-10-29T06:02:56.544Z,4.50
2023-10-29T06:04:00.457Z,3.90
2023-10-29T06:05:05.185Z,3.80
2023-10-29T06:06:08.862Z,5.28
2023-10-29T06:07:11.403Z,3.60
2023-10-29T06:08:14.905Z,5.30
2023-10-29T06:09:24.244Z,5.07
2023-10-29T06:10:28.064Z,5.63
2023-10-29T06:11:30.674Z,4.90
2023-10-29T06:12:34.173Z,4.18
2023-10-29T06:13:36.587Z,5.88
2023-10-29T06:14:40.105Z,4.32
2023-10-29T06:15:42.672Z,4.72
2023-10-29T06:16:45.104Z,4.07
2023-10-29T06:17:49.526Z,12.83
2023-10-29T06:18:52.244Z,2.95
2023-10-29T06:19:56.576Z,5.20
2023-10-29T06:21:00.658Z,4.60
2023-10-29T06:22:06.957Z,5.18
2023-10-29T06:23:09.559Z,3.60
2023-10-29T06:24:13.098Z,7.32
2023-10-29T06:25:15.989Z,4.88
2023-10-29T06:26:19.511Z,2.67
2023-10-29T06:27:22.089Z,5.07
2023-10-29T06:28:25.578Z,3.50
2023-10-29T06:29:28.001Z,6.18
2023-10-29T06:30:31.660Z,5.07
2023-10-29T06:31:34.922Z,7.03
2023-10-29T06:32:38.474Z,4.03
2023-10-29T06:33:42.815Z,3.15
2023-10-29T06:34:46.584Z,5.45
2023-10-29T06:35:49.246Z,5.88
2023-10-29T06:36:54.523Z,3.90
2023-10-29T06:37:57.074Z,3.67
2023-10-29T06:39:00.599Z,4.77
2023-10-29T06:40:04.483Z,6.20
2023-10-29T06:41:07.958Z,5.75
2023-10-29T06:42:10.454Z,4.53
2023-10-29T06:43:14.034Z,6.22
2023-10-29T06:44:16.361Z,3.58
2023-10-29T06:45:20.135Z,3.13
2023-10-29T06:46:22.595Z,4.35
2023-10-29T06:47:26.250Z,6.95
2023-10-29T06:48:29.163Z,5.00
2023-10-29T06:49:32.891Z,4.97
2023-10-29T06:50:35.378Z,5.65
2023-10-29T06:51:38.956Z,5.55
2023-10-29T06:52:42.746Z,6.32
2023-10-29T06:53:47.027Z,3.83
2023-10-29T06:54:49.884Z,3.38
2023-10-29T06:55:53.602Z,9.27
2023-10-29T06:56:56.034Z,7.13
2023-10-29T06:57:59.808Z,5.60
2023-10-29T06:59:02.782Z,8.15
2023-10-29T07:00:06.349Z,9.37
2023-10-29T07:01:11.603Z,7.43
2023-10-29T07:02:14.247Z,10.25
2023-10-29T07:03:17.978Z,8.27
2023-10-29T07:04:20.802Z,10.07
2023-10-29T07:05:24.497Z,12.13
2023-10-29T07:06:26.881Z,12.90
2023-10-29T07:07:31.285Z,10.38
2023-10-29T07:08:35.346Z,9.05
2023-10-29T07:09:39.272Z,7.57
2023-10-29T07:10:41.664Z,10.03
2023-10-29T07:11:45.380Z,9.32
2023-10-29T07:12:47.735Z,8.70
2023-10-29T07:13:51.201Z,8.73
2023-10-29T07:14:53.694Z,7.20
2023-10-29T07:15:57.821Z,7.57
2023-10-29T07:17:00.317Z,6.63
2023-10-29T07:18:04.565Z,5.80
2023-10-29T07:19:07.305Z,5.18
2023-10-29T07:20:12.528Z,7.35
2023-10-29T07:21:16.129Z,8.47
2023-10-29T07:22:19.776Z,5.40
2023-10-29T07:23:23.485Z,7.38
2023-10-29T07:24:28.426Z,7.10
2023-10-29T07:25:31.194Z,3.60
2023-10-29T07:26:34.935Z,5.35
2023-10-29T07:27:37.330Z,7.40
2023-10-29T07:28:41.727Z,5.85
2023-10-29T07:29:44.117Z,6.85
2023-10-29T07:30:47.793Z,5.75
2023-10-29T07:31:50.346Z,6.33
2023-10-29T07:32:54.142Z,5.22
2023-10-29T07:33:56.591Z,5.13
2023-10-29T07:35:00.685Z,4.20
2023-10-29T07:36:04.298Z,4.53
2023-10-29T07:37:09.938Z,4.68
2023-10-29T07:38:13.781Z,3.17
2023-10-29T07:39:16.368Z,7.63
2023-10-29T07:40:21.701Z,6.03
2023-10-29T07:41:24.123Z,7.82
2023-10-29T07:42:27.958Z,7.77
2023-10-29T07:43:30.379Z,5.93
2023-10-29T07:44:34.010Z,8.32
2023-10-29T07:45:36.448Z,9.20
2023-10-29T07:46:40.053Z,12.27
2023-10-29T07:47:42.553Z,8.23
2023-10-29T07:48:46.109Z,10.98
2023-10-29T07:49:48.540Z,16.83
2023-10-29T07:50:52.528Z,10.32
2023-10-29T07:51:56.103Z,9.73
2023-10-29T07:52:59.700Z,10.20
2023-10-29T07:54:02.154Z,10.30
2023-10-29T07:55:06.111Z,11.45
2023-10-29T07:56:11.996Z,7.63
2023-10-29T07:57:15.628Z,8.90
2023-10-29T07:58:18.089Z,8.50
2023-10-29T07:59:21.573Z,10.90
2023-10-29T08:00:24.144Z,7.93
2023-10-29T08:01:28.336Z,9.57
2023-10-29T08:02:32.058Z,11.07
2023-10-29T08:03:36.066Z,8.57
2023-10-29T08:04:39.022Z,7.57
2023-10-29T08:05:41.545Z,10.27
2023-10-29T08:06:45.399Z,12.32
2023-10-29T08:07:47.833Z,7.80
2023-10-29T08:08:51.737Z,10.23
2023-10-29T08:09:54.317Z,10.23
2023-10-29T08:10:57.798Z,11.50
2023-10-29T08:12:01.698Z,7.18
2023-10-29T08:13:07.178Z,10.70
2023-10-29T08:14:09.778Z,10.43
2023-10-29T08:15:13.784Z,6.55
2023-10-29T08:16:16.564Z,9.23
2023-10-29T08:17:19.153Z,8.18
2023-10-29T08:18:22.838Z,10.45
2023-10-29T08:19:27.844Z,9.30
2023-10-29T08:20:31.384Z,10.75
2023-10-29T08:21:33.859Z,17.00
2023-10-29T08:22:36.981Z,14.10
2023-10-29T08:23:41.447Z,8.80
2023-10-29T08:24:45.204Z,8.43
2023-10-29T08:25:49.107Z,9.60
2023-10-29T08:26:52.758Z,7.70
2023-10-29T08:27:57.640Z,7.00
2023-10-29T08:29:00.051Z,6.15
2023-10-29T08:30:06.167Z,6.15
2023-10-29T08:31:10.245Z,12.32
2023-10-29T08:32:14.115Z,12.50
2023-10-29T08:33:16.800Z,9.98
2023-10-29T08:34:20.441Z,9.68
2023-10-29T08:35:23.170Z,8.40
2023-10-29T08:36:26.737Z,10.45
2023-10-29T08:37:29.241Z,11.32
2023-10-29T08:38:32.792Z,11.43
2023-10-29T08:39:37.427Z,9.05
2023-10-29T08:40:41.205Z,9.57
2023-10-29T08:41:43.778Z,8.85
2023-10-29T08:42:48.962Z,11.25
2023-10-29T08:43:53.570Z,9.10
2023-10-29T08:44:59.046Z,4.70
2023-10-29T08:46:02.605Z,14.50
2023-10-29T08:47:06.878Z,7.50
2023-10-29T08:48:09.708Z,10.18
2023-10-29T08:49:13.796Z,13.23
2023-10-29T08:50:16.333Z,9.82
2023-10-29T08:51:18.863Z,12.18
2023-10-29T08:52:22.469Z,11.30
2023-10-29T08:53:25.893Z,8.65
2023-10-29T08:54:29.453Z,9.52
2023-10-29T08:55:32.157Z,11.05
2023-10-29T08:56:36.664Z,8.87
2023-10-29T08:57:39.068Z,7.63
2023-10-29T08:58:42.547Z,17.48
2023-10-29T08:59:46.629Z,7.97
2023-10-29T09:00:50.311Z,10.13
2023-10-29T09:01:54.519Z,8.52
2023-10-29T09:02:58.008Z,11.70
2023-10-29T09:04:01.433Z,6.63
2023-10-29T09:05:05.919Z,7.22
2023-10-29T09:06:09.005Z,9.35
2023-10-29T09:07:12.615Z,9.70
2023-10-29T09:08:15.108Z,6.57
2023-10-29T09:09:18.534Z,7.03
2023-10-29T09:10:21.005Z,5.82
2023-10-29T09:11:24.523Z,8.43
2023-10-29T09:12:26.898Z,9.45
2023-10-29T09:13:30.236Z,5.13
2023-10-29T09:14:32.745Z,6.05
2023-10-29T09:15:37.765Z,8.02
2023-10-29T09:16:40.297Z,5.72
2023-10-29T09:17:44.038Z,5.60
2023-10-29T09:18:48.826Z,6.53
2023-10-29T09:19:52.330Z,5.25
2023-10-29T09:20:55.081Z,3.97
2023-10-29T09:21:59.822Z,6.95
2023-10-29T09:23:02.835Z,3.53
2023-10-29T09:24:08.373Z,7.72
2023-10-29T09:25:10.797Z,6.95
2023-10-29T09:26:16.091Z,5.18
2023-10-29T09:27:20.351Z,6.45
2023-10-29T09:28:23.913Z,6.23
2023-10-29T09:29:26.420Z,3.22
2023-10-29T09:30:29.953Z,5.28
2023-10-29T09:31:33.995Z,6.72
2023-10-29T09:32:37.651Z,6.28
2023-10-29T09:33:40.934Z,11.18
2023-10-29T09:34:44.516Z,4.63
2023-10-29T09:35:47.024Z,6.90
2023-10-29T09:36:50.536Z,4.53
2023-10-29T09:37:53.066Z,6.13
2023-10-29T09:38:56.578Z,8.33
2023-10-29T09:39:59.014Z,4.72
2023-10-29T09:41:03.739Z,7.50
2023-10-29T09:42:10.312Z,6.40
2023-10-29T09:43:16.051Z,6.50
2023-10-29T09:44:21.879Z,6.15
2023-10-29T09:45:26.708Z,7.88
2023-10-29T09:46:33.893Z,8.82
2023-10-29T09:47:37.953Z,5.70
2023-10-29T09:48:43.861Z,7.35
2023-10-29T09:49:47.645Z,8.37
2023-10-29T09:50:50.486Z,8.02
2023-10-29T09:51:54.374Z,12.35
2023-10-29T09:52:58.896Z,7.03
2023-10-29T09:54:02.923Z,6.25
2023-10-29T09:55:08.778Z,6.45
2023-10-29T09:56:13.970Z,6.38
2023-10-29T09:57:16.976Z,8.13
2023-10-29T09:58:23.723Z,6.85
2023-10-29T09:59:26.325Z,10.90
2023-10-29T10:00:29.946Z,10.57
2023-10-29T10:01:44.606Z,6.90
2023-10-29T10:02:58.130Z,9.32
2023-10-29T10:04:01.192Z,7.07
2023-10-29T10:05:11.280Z,6.78
2023-10-29T10:06:16.808Z,6.68
2023-10-29T10:07:24.194Z,7.25
2023-10-29T10:08:27.193Z,4.78
2023-10-29T10:09:54.408Z,6.13
2023-10-29T10:10:57.627Z,5.50
2023-10-29T10:12:06.607Z,5.80
2023-10-29T10:13:09.345Z,6.90
2023-10-29T10:14:27.707Z,7.57
2023-10-29T10:15:30.306Z,9.73
2023-10-29T10:16:35.538Z,4.53
2023-10-29T10:17:38.060Z,5.88
2023-10-29T10:18:52.908Z,8.68
2023-10-29T10:20:07.525Z,8.85
2023-10-29T10:21:11.062Z,6.78
2023-10-29T10:22:13.678Z,6.05
2023-10-29T10:23:17.199Z,7.63
2023-10-29T10:24:20.763Z,6.18
2023-10-29T10:25:27.689Z,5.15
2023-10-29T10:26:31.776Z,8.68
2023-10-29T10:27:49.926Z,10.25
2023-10-29T10:28:55.125Z,5.75
2023-10-29T10:29:59.324Z,4.78
2023-10-29T10:31:15.319Z,8.73
2023-10-29T10:32:26.283Z,6.97
2023-10-29T10:33:29.708Z,5.97
2023-10-29T10:34:35.489Z,4.13
2023-10-29T10:35:42.264Z,8.82
2023-10-29T10:36:46.822Z,6.00
2023-10-29T10:37:56.426Z,7.97
2023-10-29T10:39:00.837Z,5.70
2023-10-29T10:40:22.130Z,10.27
2023-10-29T10:41:25.771Z,7.32
2023-10-29T10:42:28.443Z,4.00
2023-10-29T10:43:33.121Z,10.65
2023-10-29T10:44:37.814Z,12.95
2023-10-29T10:45:43.102Z,11.40
2023-10-29T10:46:50.882Z,12.27
2023-10-29T10:47:58.144Z,8.82
2023-10-29T10:49:02.824Z,10.93
2023-10-29T10:50:09.255Z,7.18
2023-10-29T10:51:12.598Z,12.13
2023-10-29T10:52:18.180Z,8.77
2023-10-29T10:53:21.120Z,9.52
2023-10-29T10:54:25.526Z,10.60
2023-10-29T10:55:46.914Z,9.98
2023-10-29T10:56:55.111Z,12.87
2023-10-29T10:57:58.233Z,9.90
2023-10-29T10:59:02.073Z,9.75
2023-10-29T11:00:07.134Z,10.70
2023-10-29T11:01:12.067Z,10.65
2023-10-29T11:02:15.589Z,8.43
2023-10-29T11:03:32.537Z,11.52
2023-10-29T11:04:37.980Z,9.38
2023-10-29T11:05:43.080Z,6.93
2023-10-29T11:06:45.844Z,10.43
2023-10-29T11:07:49.914Z,7.40
2023-10-29T11:08:53.578Z,8.55
2023-10-29T11:09:57.771Z,11.43
2023-10-29T11:11:02.187Z,6.85
2023-10-29T11:12:08.434Z,6.18
2023-10-29T11:13:21.587Z,8.43
2023-10-29T11:14:28.218Z,13.60
2023-10-29T11:15:31.084Z,7.85
2023-10-29T11:16:33.916Z,9.55
2023-10-29T11:18:10.401Z,8.95
2023-10-29T11:19:45.795Z,7.43
2023-10-29T11:21:00.884Z,9.55
2023-10-29T11:22:17.278Z,7.65
2023-10-29T11:23:25.600Z,8.95
2023-10-29T11:24:28.065Z,7.47
2023-10-29T11:25:31.966Z,10.60
2023-10-29T11:26:34.831Z,13.15
2023-10-29T11:27:38.731Z,9.60
2023-10-29T11:28:46.772Z,11.10
2023-10-29T11:29:49.645Z,18.70
2023-10-29T11:31:17.851Z,10.03
2023-10-29T11:32:27.403Z,10.10
2023-10-29T11:33:30.964Z,9.63
2023-10-29T11:34:34.986Z,11.25
2023-10-29T11:35:41.054Z,9.45
2023-10-29T11:36:44.374Z,7.78
2023-10-29T11:37:50.160Z,10.98
2023-10-29T11:38:52.811Z,17.70
2023-10-29T11:39:56.505Z,10.70
2023-10-29T11:41:00.539Z,19.67
2023-10-29T11:42:27.056Z,10.97
2023-10-29T11:43:29.927Z,13.25
2023-10-29T11:44:34.517Z,14.40
2023-10-29T11:45:37.608Z,19.33
2023-10-29T11:47:08.158Z,12.70
2023-10-29T11:48:11.500Z,12.88
2023-10-29T11:49:15.372Z,11.95
2023-10-29T11:50:17.775Z,10.98
2023-10-29T11:51:27.209Z,10.57
2023-10-29T11:52:41.486Z,15.07
2023-10-29T11:53:45.115Z,14.77
2023-10-29T11:54:47.834Z,12.98
2023-10-29T11:55:52.516Z,13.13
2023-10-29T11:56:59.172Z,9.95
2023-10-29T11:58:02.411Z,14.38
2023-10-29T11:59:07.453Z,19.45
2023-10-29T12:00:10.919Z,16.13
2023-10-29T12:01:21.359Z,12.43
2023-10-29T12:02:25.192Z,11.48
2023-10-29T12:03:28.188Z,18.08
2023-10-29T12:04:32.158Z,12.40
2023-10-29T12:05:35.346Z,14.73
2023-10-29T12:06:45.074Z,14.50
2023-10-29T12:07:47.997Z,10.27
2023-10-29T12:08:50.513Z,13.27
2023-10-29T12:10:02.565Z,9.95
2023-10-29T12:11:05.638Z,8.93
2023-10-29T12:12:12.704Z,15.60
2023-10-29T12:13:15.646Z,13.73
2023-10-29T12:14:40.496Z,11.45
2023-10-29T12:15:48.089Z,16.40
2023-10-29T12:16:52.019Z,15.10
2023-10-29T12:17:54.803Z,11.30
2023-10-29T12:18:58.352Z,13.63
2023-10-29T12:20:00.895Z,10.30
2023-10-29T12:21:08.925Z,15.40
2023-10-29T12:22:18.598Z,18.63
2023-10-29T12:23:22.348Z,17.27
2023-10-29T12:24:25.027Z,14.75
2023-10-29T12:25:29.533Z,22.20
2023-10-29T12:26:32.088Z,12.03
2023-10-29T12:27:40.669Z,14.15
2023-10-29T12:28:43.463Z,16.63
2023-10-29T12:29:46.236Z,9.18
2023-10-29T12:30:51.885Z,19.30
2023-10-29T12:31:54.601Z,15.00
2023-10-29T12:33:23.033Z,12.82
2023-10-29T12:34:26.004Z,10.27
2023-10-29T12:35:37.242Z,11.95
2023-10-29T12:36:40.084Z,15.93
2023-10-29T12:37:54.475Z,10.83
2023-10-29T12:38:57.086Z,10.55
2023-10-29T12:40:02.300Z,13.05
2023-10-29T12:41:07.134Z,12.70
2023-10-29T12:42:11.033Z,11.30
2023-10-29T12:43:14.991Z,12.32
2023-10-29T12:44:18.924Z,9.43
2023-10-29T12:45:25.990Z,13.30
2023-10-29T12:46:29.935Z,15.93
2023-10-29T12:47:32.349Z,16.27
2023-10-29T12:48:37.852Z,15.43
2023-10-29T12:49:40.574Z,15.40
2023-10-29T12:50:48.520Z,17.73
2023-10-29T12:51:54.324Z,23.02
2023-10-29T12:52:59.356Z,16.50
2023-10-29T12:54:12.681Z,16.98
2023-10-29T12:55:17.371Z,12.82
2023-10-29T12:56:19.891Z,16.48
2023-10-29T12:57:23.665Z,18.83
2023-10-29T12:58:27.591Z,14.85
2023-10-29T12:59:33.012Z,16.50
2023-10-29T13:00:35.575Z,17.63
2023-10-29T13:01:39.771Z,16.38
2023-10-29T13:02:42.340Z,16.33
2023-10-29T13:03:46.196Z,15.45
2023-10-29T13:04:49.317Z,14.90
2023-10-29T13:05:55.813Z,13.60
2023-10-29T13:07:06.886Z,19.52
2023-10-29T13:08:12.685Z,12.82
2023-10-29T13:09:19.561Z,13.25
2023-10-29T13:10:22.857Z,13.83
2023-10-29T13:11:26.725Z,18.23
2023-10-29T13:12:29.403Z,12.43
2023-10-29T13:13:35.982Z,18.60
2023-10-29T13:14:39.212Z,18.25
2023-10-29T13:15:43.340Z,15.90
2023-10-29T13:16:46.010Z,14.70
2023-10-29T13:17:49.759Z,12.35
2023-10-29T13:18:52.391Z,17.80
2023-10-29T13:19:56.288Z,15.00
2023-10-29T13:21:01.936Z,10.90
2023-10-29T13:22:05.102Z,13.73
2023-10-29T13:23:09.052Z,11.15
2023-10-29T13:24:13.115Z,21.30
2023-10-29T13:25:17.871Z,12.52
2023-10-29T13:26:20.350Z,12.00
2023-10-29T13:27:23.870Z,14.48
2023-10-29T13:28:26.538Z,13.38
2023-10-29T13:29:30.009Z,14.65
2023-10-29T13:30:34.143Z,15.73
2023-10-29T13:31:37.612Z,14.00
2023-10-29T13:32:40.173Z,12.60
2023-10-29T13:33:44.113Z,12.00
2023-10-29T13:34:47.795Z,20.80
2023-10-29T13:35:51.780Z,10.15
2023-10-29T13:36:55.876Z,13.75
2023-10-29T13:37:59.349Z,13.68
2023-10-29T13:39:02.585Z,14.18
2023-10-29T13:40:09.024Z,14.05
2023-10-29T13:41:13.409Z,22.42
2023-10-29T13:42:17.752Z,18.33
2023-10-29T13:43:20.292Z,11.95
2023-10-29T13:44:24.481Z,14.13
2023-10-29T13:45:28.460Z,19.98
2023-10-29T13:46:32.366Z,15.27
2023-10-29T13:47:36.282Z,11.50
2023-10-29T13:48:38.973Z,17.80
2023-10-29T13:49:43.884Z,13.70
2023-10-29T13:50:46.411Z,11.75
2023-10-29T13:51:49.843Z,11.43
2023-10-29T13:52:52.447Z,17.70
2023-10-29T13:53:56.146Z,14.50
2023-10-29T13:54:58.704Z,16.95
2023-10-29T13:56:09.388Z,19.65
2023-10-29T13:57:11.943Z,16.73
2023-10-29T13:58:15.495Z,18.85
2023-10-29T13:59:17.866Z,17.60
2023-10-29T14:00:23.189Z,12.48
2023-10-29T14:01:25.916Z,17.05
2023-10-29T14:02:29.662Z,17.52
2023-10-29T14:03:32.578Z,13.93
2023-10-29T14:04:36.314Z,14.82
2023-10-29T14:05:39.427Z,15.18
2023-10-29T14:06:43.164Z,17.75
2023-10-29T14:07:46.765Z,9.00
2023-10-29T14:08:50.284Z,8.60